KPOU/POU METAR and TAF weather

Enter ICAO airport designator
Station Type Date Time Source
KPOU METAR 2020/04/05 20:53 UTC NOAA

KPOU 052053Z 17003KT 10SM OVC055 17/07 A2994 RMK AO2 SLP134 T01670067 56009


Station Type Date Time Source
KPOU Decoded METAR 2020/04/05 20:53 UTC NOAA

POUGHKEEPSIE DUTCHESS CTY, NY, United States (KPOU) 41-38N 073-53W 46M
Apr 05, 2020 - 04:53 PM EDT / 2020.04.05 2053 UTC
Wind: from the S (170 degrees) at 3 MPH (3 KT):0
Visibility: 10 mile(s):0
Sky conditions: overcast
Temperature: 62.1 F (16.7 C)
Dew Point: 44.1 F (6.7 C)
Relative Humidity: 51%
Pressure (altimeter): 29.94 in. Hg (1013 hPa)
Pressure tendency: 0.03 inches (0.9 hPa) lower than three hours ago
ob: KPOU 052053Z 17003KT 10SM OVC055 17/07 A2994 RMK AO2 SLP134 T01670067 56009
cycle: 21

Station Type Date Time Source
KPOU TAF 2020/04/05 18:24 UTC NOAA

TAF KPOU 051722Z 0518/0618 21006KT P6SM VCSH BKN070
FM060300 34004KT P6SM SCT050
FM061400 33007KT P6SM FEW060 SCT250

Example: see airport list